createdAt,value
2022-10-01T00:02:07.989Z,3.80
2022-10-01T00:04:40.090Z,3.90
2022-10-01T00:07:11.093Z,3.80
2022-10-01T00:09:39.172Z,3.50
2022-10-01T00:12:07.510Z,3.00
2022-10-01T00:14:39.304Z,4.20
2022-10-01T00:17:07.340Z,4.30
2022-10-01T00:19:35.387Z,4.20
2022-10-01T00:22:03.688Z,3.40
2022-10-01T00:24:31.985Z,4.00
2022-10-01T00:27:00.623Z,4.30
2022-10-01T00:29:28.723Z,4.00
2022-10-01T00:31:57.364Z,4.00
2022-10-01T00:34:25.525Z,4.00
2022-10-01T00:36:53.601Z,4.00
2022-10-01T00:39:21.930Z,3.80
2022-10-01T00:41:51.186Z,4.00
2022-10-01T00:44:35.141Z,3.80
2022-10-01T00:47:24.060Z,4.60
2022-10-01T00:49:59.200Z,4.60
2022-10-01T00:52:32.306Z,4.00
2022-10-01T00:55:28.388Z,4.20
2022-10-01T00:57:56.904Z,4.70
2022-10-01T01:00:25.356Z,4.30
2022-10-01T01:02:53.569Z,4.30
2022-10-01T01:05:21.779Z,4.00
2022-10-01T01:07:53.462Z,4.10
2022-10-01T01:10:37.789Z,3.80
2022-10-01T01:13:34.787Z,4.70
2022-10-01T01:16:24.481Z,4.70
2022-10-01T01:19:17.521Z,4.80
2022-10-01T01:21:53.295Z,4.40
2022-10-01T01:24:37.036Z,3.90
2022-10-01T01:27:07.851Z,4.00
2022-10-01T01:30:15.085Z,5.00
2022-10-01T01:32:49.158Z,4.50
2022-10-01T01:35:26.814Z,4.20
2022-10-01T01:38:02.010Z,4.70
2022-10-01T01:40:34.559Z,4.80
2022-10-01T01:43:06.737Z,4.20
2022-10-01T01:45:40.231Z,4.40
2022-10-01T01:48:11.428Z,4.30
2022-10-01T01:50:53.153Z,4.20
2022-10-01T01:53:21.538Z,4.00
2022-10-01T01:55:50.288Z,4.40
2022-10-01T01:58:19.592Z,4.60
2022-10-01T02:00:54.527Z,4.00
2022-10-01T02:03:25.978Z,4.20
2022-10-01T02:06:05.250Z,4.00
2022-10-01T02:08:37.029Z,4.20
2022-10-01T02:11:22.223Z,4.60
2022-10-01T02:14:04.051Z,4.20
2022-10-01T02:17:01.523Z,4.90
2022-10-01T02:19:43.351Z,3.90
2022-10-01T02:22:17.750Z,3.70
2022-10-01T02:24:51.531Z,4.40
2022-10-01T02:27:26.402Z,4.80
2022-10-01T02:29:57.770Z,4.30
2022-10-01T02:32:27.721Z,4.40
2022-10-01T02:34:57.049Z,4.20
2022-10-01T02:37:27.824Z,3.70
2022-10-01T02:39:57.535Z,4.80
2022-10-01T02:42:28.814Z,4.70
2022-10-01T02:45:04.192Z,5.10
2022-10-01T02:47:41.864Z,4.90
2022-10-01T02:50:10.247Z,4.70
2022-10-01T02:52:59.217Z,4.80
2022-10-01T02:55:31.040Z,4.80
2022-10-01T02:57:59.047Z,5.10
2022-10-01T03:00:27.307Z,4.70
2022-10-01T03:02:55.466Z,4.50
2022-10-01T03:05:23.719Z,4.20
2022-10-01T03:07:52.065Z,4.60
2022-10-01T03:10:20.040Z,4.60
2022-10-01T03:12:48.210Z,4.70
2022-10-01T03:15:19.390Z,4.60
2022-10-01T03:17:54.081Z,4.40
2022-10-01T03:20:22.584Z,4.60
2022-10-01T03:22:51.015Z,4.60
2022-10-01T03:25:19.183Z,4.80
2022-10-01T03:27:47.382Z,4.80
2022-10-01T03:30:15.504Z,4.90
2022-10-01T03:32:43.589Z,5.00
2022-10-01T03:35:11.885Z,4.90
2022-10-01T03:37:39.997Z,5.20
2022-10-01T03:40:08.529Z,5.30
2022-10-01T03:42:36.660Z,5.20
2022-10-01T03:45:04.775Z,5.50
2022-10-01T03:47:32.835Z,5.30
2022-10-01T03:50:00.721Z,5.40
2022-10-01T03:52:28.727Z,4.90
2022-10-01T03:54:56.622Z,5.80
2022-10-01T03:57:24.518Z,5.10
2022-10-01T03:59:52.690Z,4.80
2022-10-01T04:02:22.091Z,5.90
2022-10-01T04:04:51.233Z,6.10
2022-10-01T04:07:19.329Z,6.30
2022-10-01T04:09:47.478Z,5.20
2022-10-01T04:12:15.517Z,5.50
2022-10-01T04:14:43.551Z,5.70
2022-10-01T04:17:11.524Z,5.90
2022-10-01T04:19:39.414Z,6.10
2022-10-01T04:22:07.305Z,5.80
2022-10-01T04:24:35.255Z,5.50
2022-10-01T04:27:03.210Z,5.40
2022-10-01T04:29:31.118Z,5.30
2022-10-01T04:31:59.069Z,5.10
2022-10-01T04:34:46.936Z,5.10
2022-10-01T04:37:14.976Z,4.70
2022-10-01T04:39:43.000Z,5.20
2022-10-01T04:42:13.141Z,5.20
2022-10-01T04:44:41.524Z,5.40
2022-10-01T04:47:09.505Z,5.70
2022-10-01T04:49:37.433Z,5.40
2022-10-01T04:52:05.514Z,5.40
2022-10-01T04:54:33.515Z,5.80
2022-10-01T04:57:01.485Z,5.70
2022-10-01T04:59:29.409Z,5.50
2022-10-01T05:01:57.610Z,5.00
2022-10-01T05:04:27.411Z,5.80
2022-10-01T05:06:56.384Z,5.80
2022-10-01T05:09:24.427Z,6.50
2022-10-01T05:11:52.668Z,5.70
2022-10-01T05:14:21.520Z,6.20
2022-10-01T05:16:49.475Z,5.90
2022-10-01T05:19:17.562Z,5.20
2022-10-01T05:21:46.284Z,5.50
2022-10-01T05:24:15.271Z,5.90
2022-10-01T05:26:43.126Z,5.30
2022-10-01T05:29:11.584Z,5.90
2022-10-01T05:31:44.436Z,5.40
2022-10-01T05:34:12.828Z,5.70
2022-10-01T05:36:40.721Z,6.30
2022-10-01T05:39:08.656Z,5.70
2022-10-01T05:41:37.033Z,5.40
2022-10-01T05:44:06.270Z,5.90
2022-10-01T05:46:34.322Z,5.40
2022-10-01T05:49:02.209Z,5.50
2022-10-01T05:51:30.414Z,5.60
2022-10-01T05:54:01.833Z,6.20
2022-10-01T05:56:29.971Z,5.70
2022-10-01T05:58:58.381Z,6.00
2022-10-01T06:01:26.443Z,5.70
2022-10-01T06:03:54.435Z,5.20
2022-10-01T06:06:23.779Z,6.10
2022-10-01T06:08:52.502Z,6.60
2022-10-01T06:11:23.015Z,6.90
2022-10-01T06:13:51.138Z,6.10
2022-10-01T06:16:20.911Z,6.30
2022-10-01T06:18:49.773Z,6.90
2022-10-01T06:21:17.706Z,6.70
2022-10-01T06:23:46.022Z,6.90
2022-10-01T06:26:13.885Z,7.80
2022-10-01T06:28:41.840Z,7.50
2022-10-01T06:31:09.976Z,7.40
2022-10-01T06:33:38.330Z,8.80
2022-10-01T06:36:06.500Z,10.80
2022-10-01T06:38:34.595Z,9.00
2022-10-01T06:41:04.648Z,9.50
2022-10-01T06:43:33.952Z,9.20
2022-10-01T06:46:03.962Z,8.70
2022-10-01T06:48:35.567Z,11.30
2022-10-01T06:51:04.178Z,12.10
2022-10-01T06:53:32.308Z,12.70
2022-10-01T06:56:06.551Z,11.70
2022-10-01T06:58:34.963Z,12.20
2022-10-01T07:01:03.927Z,12.70
2022-10-01T07:03:32.364Z,12.00
2022-10-01T07:06:05.256Z,14.70
2022-10-01T07:08:33.475Z,13.70
2022-10-01T07:11:02.839Z,14.10
2022-10-01T07:13:32.186Z,14.70
2022-10-01T07:16:03.683Z,15.90
2022-10-01T07:18:31.740Z,17.30
2022-10-01T07:20:59.770Z,17.20
2022-10-01T07:23:27.657Z,18.30
2022-10-01T07:25:55.531Z,19.80
2022-10-01T07:28:25.750Z,21.00
2022-10-01T07:31:01.466Z,18.80
2022-10-01T07:33:29.799Z,18.60
2022-10-01T07:36:01.267Z,17.70
2022-10-01T07:38:29.697Z,16.10
2022-10-01T07:40:59.088Z,15.20
2022-10-01T07:43:27.021Z,15.40
2022-10-01T07:45:58.119Z,15.00
2022-10-01T07:48:27.672Z,15.20
2022-10-01T07:50:56.588Z,13.40
2022-10-01T07:53:25.603Z,12.00
2022-10-01T07:55:53.751Z,12.10
2022-10-01T07:58:24.268Z,12.00
2022-10-01T08:00:58.478Z,12.00
2022-10-01T08:03:27.523Z,10.20
2022-10-01T08:05:55.477Z,10.20
2022-10-01T08:08:23.316Z,9.80
2022-10-01T08:10:51.438Z,13.70
2022-10-01T08:13:20.450Z,20.30
2022-10-01T08:15:53.712Z,22.80
2022-10-01T08:20:50.351Z,15.10
2022-10-01T08:23:18.739Z,12.20
2022-10-01T08:25:47.962Z,11.20
2022-10-01T08:28:16.505Z,10.30
2022-10-01T08:30:44.577Z,9.30
2022-10-01T08:33:14.299Z,9.50
2022-10-01T08:35:43.755Z,9.20
2022-10-01T08:38:12.770Z,9.30
2022-10-01T08:40:50.104Z,9.80
2022-10-01T08:43:32.844Z,10.60
2022-10-01T08:46:06.950Z,11.70
2022-10-01T08:48:58.793Z,11.30
2022-10-01T08:51:38.468Z,10.90
2022-10-01T08:54:29.076Z,10.50
2022-10-01T08:57:03.130Z,9.90
2022-10-01T08:59:47.319Z,9.90
2022-10-01T09:02:19.842Z,10.30
2022-10-01T09:04:49.232Z,9.30
2022-10-01T09:07:29.374Z,8.00
2022-10-01T09:10:09.172Z,7.10
2022-10-01T09:13:06.451Z,5.60
2022-10-01T09:15:56.383Z,5.70
2022-10-01T09:18:49.216Z,6.60
2022-10-01T09:21:33.571Z,5.90
2022-10-01T09:24:16.693Z,5.80
2022-10-01T09:26:50.229Z,5.70
2022-10-01T09:29:27.577Z,4.60
2022-10-01T09:31:58.999Z,4.50
2022-10-01T09:34:42.389Z,6.10
2022-10-01T09:37:49.548Z,6.70
2022-10-01T09:40:20.153Z,6.60
2022-10-01T09:42:48.267Z,6.20
2022-10-01T09:45:18.935Z,6.60
2022-10-01T09:47:51.118Z,6.20
2022-10-01T09:50:28.057Z,4.90
2022-10-01T09:52:58.268Z,4.80
2022-10-01T09:55:51.676Z,4.50
2022-10-01T09:58:23.961Z,3.80
2022-10-01T10:00:53.857Z,3.80
2022-10-01T10:03:24.487Z,4.30
2022-10-01T10:05:52.765Z,4.40
2022-10-01T10:08:39.683Z,4.10
2022-10-01T10:11:12.067Z,4.10
2022-10-01T10:13:48.803Z,3.80
2022-10-01T10:16:28.578Z,3.30
2022-10-01T10:19:15.621Z,3.70
2022-10-01T10:21:54.894Z,3.60
2022-10-01T10:24:31.729Z,3.10
2022-10-01T10:27:02.052Z,4.10
2022-10-01T10:29:34.929Z,4.80
2022-10-01T10:32:07.480Z,4.70
2022-10-01T10:34:43.050Z,4.40
2022-10-01T10:37:21.741Z,5.30
2022-10-01T10:39:51.905Z,5.30
2022-10-01T10:42:22.483Z,4.10
2022-10-01T10:44:54.638Z,4.20
2022-10-01T10:47:24.425Z,3.70
2022-10-01T10:50:04.470Z,3.60
2022-10-01T10:52:37.388Z,3.80
2022-10-01T10:55:31.526Z,4.50
2022-10-01T10:58:15.003Z,3.50
2022-10-01T11:00:50.551Z,3.50
2022-10-01T11:03:22.615Z,3.90
2022-10-01T11:05:52.100Z,2.60
2022-10-01T11:08:22.729Z,2.30
2022-10-01T11:11:27.728Z,2.50
2022-10-01T11:14:36.396Z,2.20
2022-10-01T11:17:27.931Z,2.10
2022-10-01T11:20:20.639Z,1.80
2022-10-01T11:22:55.022Z,2.20
2022-10-01T11:25:37.816Z,2.10
2022-10-01T11:28:39.735Z,2.00
2022-10-01T11:31:43.037Z,1.90
2022-10-01T11:34:48.765Z,1.90
2022-10-01T11:38:05.274Z,1.80
2022-10-01T11:40:59.184Z,2.00
2022-10-01T11:43:35.628Z,1.90
2022-10-01T11:46:10.659Z,1.80
2022-10-01T11:48:46.631Z,1.80
2022-10-01T11:51:20.061Z,2.00
2022-10-01T11:53:54.227Z,1.90
2022-10-01T11:56:49.378Z,1.80
2022-10-01T11:59:24.413Z,1.80
2022-10-01T12:02:03.231Z,1.80
2022-10-01T12:04:37.964Z,1.80
2022-10-01T12:07:15.471Z,1.70
2022-10-01T12:09:55.335Z,2.40
2022-10-01T12:12:30.100Z,2.00
2022-10-01T12:15:12.328Z,2.00
2022-10-01T12:17:55.437Z,2.00
2022-10-01T12:20:32.315Z,1.90
2022-10-01T12:23:05.277Z,1.80
2022-10-01T12:25:57.247Z,2.00
2022-10-01T12:28:41.261Z,1.90
2022-10-01T12:31:27.406Z,1.90
2022-10-01T12:34:17.639Z,1.90
2022-10-01T12:37:11.060Z,1.90
2022-10-01T12:39:51.446Z,1.90
2022-10-01T12:42:25.521Z,1.90
2022-10-01T12:45:19.981Z,2.30
2022-10-01T12:47:54.921Z,1.80
2022-10-01T12:50:31.428Z,2.00
2022-10-01T12:53:25.929Z,1.90
2022-10-01T12:56:33.921Z,2.10
2022-10-01T12:59:11.935Z,1.90
2022-10-01T13:02:04.117Z,1.60
2022-10-01T13:05:05.203Z,2.20
2022-10-01T13:07:56.546Z,2.00
2022-10-01T13:11:02.952Z,1.90
2022-10-01T13:13:33.590Z,1.80
2022-10-01T13:16:09.338Z,1.60
2022-10-01T13:18:52.226Z,1.80
2022-10-01T13:21:32.390Z,2.10
2022-10-01T13:24:14.589Z,2.20
2022-10-01T13:26:56.088Z,2.00
2022-10-01T13:29:26.947Z,2.00
2022-10-01T13:31:57.358Z,2.10
2022-10-01T13:34:32.192Z,1.90
2022-10-01T13:37:14.072Z,1.90
2022-10-01T13:39:43.545Z,2.00
2022-10-01T13:42:20.523Z,2.20
2022-10-01T13:45:16.670Z,1.90
2022-10-01T13:47:44.729Z,1.70
2022-10-01T13:50:24.954Z,2.00
2022-10-01T13:53:06.129Z,2.30
2022-10-01T13:55:34.237Z,2.40
2022-10-01T13:58:20.939Z,2.10
2022-10-01T14:00:54.498Z,2.10
2022-10-01T14:03:59.700Z,2.20
2022-10-01T14:06:41.885Z,2.10
2022-10-01T14:09:35.786Z,1.80
2022-10-01T14:15:16.191Z,2.00
2022-10-01T14:17:46.392Z,2.30
2022-10-01T14:21:06.727Z,2.40
2022-10-01T14:23:43.320Z,2.10
2022-10-01T14:26:22.207Z,2.20
2022-10-01T14:29:17.928Z,2.10
2022-10-01T14:31:58.858Z,2.30
2022-10-01T14:34:47.978Z,2.00
2022-10-01T14:37:18.783Z,2.20
2022-10-01T14:39:46.956Z,2.20
2022-10-01T14:42:18.515Z,2.40
2022-10-01T14:44:47.525Z,2.50
2022-10-01T14:47:26.164Z,2.30
2022-10-01T14:49:54.886Z,2.50
2022-10-01T14:52:32.210Z,2.30
2022-10-01T14:55:06.020Z,2.30
2022-10-01T14:57:43.852Z,2.40
2022-10-01T15:00:18.615Z,2.40
2022-10-01T15:03:01.969Z,2.30
2022-10-01T15:05:33.521Z,2.40
2022-10-01T15:08:23.375Z,2.50
2022-10-01T15:10:59.156Z,2.60
2022-10-01T15:13:31.244Z,3.40
2022-10-01T15:15:59.809Z,3.70
2022-10-01T15:18:28.645Z,4.20
2022-10-01T15:21:05.663Z,3.40
2022-10-01T15:23:39.059Z,3.30
2022-10-01T15:26:11.424Z,3.00
2022-10-01T15:28:39.599Z,3.40
2022-10-01T15:31:08.026Z,3.60
2022-10-01T15:33:41.104Z,3.50
2022-10-01T15:36:15.216Z,3.60
2022-10-01T15:38:44.891Z,3.10
2022-10-01T15:41:32.085Z,3.10
2022-10-01T15:44:05.596Z,2.90
2022-10-01T15:46:36.036Z,3.00
2022-10-01T15:49:17.243Z,2.60
2022-10-01T15:52:20.175Z,3.10
2022-10-01T15:54:57.135Z,2.70
2022-10-01T15:57:27.272Z,2.60
2022-10-01T15:59:57.832Z,2.80
2022-10-01T16:02:30.648Z,3.00
2022-10-01T16:05:06.791Z,5.40
2022-10-01T16:07:35.556Z,6.70
2022-10-01T16:10:34.628Z,8.10
2022-10-01T16:13:39.280Z,6.10
2022-10-01T16:16:13.144Z,4.70
2022-10-01T16:18:41.942Z,3.70
2022-10-01T16:21:11.435Z,3.30
2022-10-01T16:23:44.182Z,3.70
2022-10-01T16:26:27.334Z,4.10
2022-10-01T16:29:12.092Z,3.90
2022-10-01T16:31:43.520Z,3.60
2022-10-01T16:34:13.999Z,3.10
2022-10-01T16:36:43.047Z,3.30
2022-10-01T16:39:13.801Z,2.80
2022-10-01T16:41:56.561Z,2.90
2022-10-01T16:44:38.288Z,2.90
2022-10-01T16:47:06.043Z,3.30
2022-10-01T16:49:34.658Z,3.50
2022-10-01T16:52:02.721Z,3.40
2022-10-01T16:54:30.569Z,3.60
2022-10-01T16:56:59.444Z,3.60
2022-10-01T16:59:27.184Z,3.90
2022-10-01T17:01:57.076Z,3.50
2022-10-01T17:04:29.259Z,4.60
2022-10-01T17:06:59.833Z,5.40
2022-10-01T17:09:27.891Z,4.90
2022-10-01T17:11:55.853Z,5.20
2022-10-01T17:14:25.042Z,3.10
2022-10-01T17:16:53.620Z,2.40
2022-10-01T17:19:22.096Z,2.60
2022-10-01T17:21:50.057Z,2.20
2022-10-01T17:24:17.855Z,2.00
2022-10-01T17:26:46.128Z,1.80
2022-10-01T17:29:13.864Z,2.10
2022-10-01T17:31:44.762Z,2.10
2022-10-01T17:34:13.255Z,1.80
2022-10-01T17:36:41.141Z,1.70
2022-10-01T17:39:09.019Z,1.80
2022-10-01T17:41:36.915Z,1.50
2022-10-01T17:44:04.853Z,2.10
2022-10-01T17:46:33.005Z,2.00
2022-10-01T17:49:00.911Z,1.80
2022-10-01T17:51:29.046Z,2.00
2022-10-01T17:53:57.020Z,1.50
2022-10-01T17:56:25.088Z,1.90
2022-10-01T17:58:54.763Z,2.10
2022-10-01T18:01:22.949Z,1.90
2022-10-01T18:03:56.772Z,1.90
2022-10-01T18:06:25.328Z,1.70
2022-10-01T18:08:56.237Z,2.00
2022-10-01T18:11:28.262Z,2.20
2022-10-01T18:13:56.602Z,2.30
2022-10-01T18:16:25.812Z,2.10
2022-10-01T18:21:51.136Z,2.20
2022-10-01T18:24:19.551Z,2.70
2022-10-01T18:26:47.452Z,2.50
2022-10-01T18:29:21.625Z,2.20
2022-10-01T18:32:13.025Z,2.10
2022-10-01T18:34:47.744Z,2.30
2022-10-01T18:37:37.557Z,2.30
2022-10-01T18:40:20.853Z,2.40
2022-10-01T18:43:02.486Z,2.30
2022-10-01T18:46:06.869Z,2.30
2022-10-01T18:49:05.821Z,3.00
2022-10-01T18:52:08.936Z,2.60
2022-10-01T18:55:07.665Z,2.50
2022-10-01T18:57:58.344Z,2.30
2022-10-01T19:00:42.809Z,2.20
2022-10-01T19:03:36.672Z,2.30
2022-10-01T19:06:11.556Z,3.10
2022-10-01T19:08:42.637Z,2.60
2022-10-01T19:11:51.642Z,2.80
2022-10-01T19:14:46.634Z,2.70
2022-10-01T19:17:19.370Z,2.40
2022-10-01T19:20:20.861Z,3.10
2022-10-01T19:23:00.989Z,3.40
2022-10-01T19:25:37.788Z,4.00
2022-10-01T19:28:30.607Z,4.20
2022-10-01T19:31:07.061Z,4.40
2022-10-01T19:33:42.128Z,4.70
2022-10-01T19:36:35.210Z,4.20
2022-10-01T19:39:11.011Z,3.70
2022-10-01T19:41:53.454Z,3.80
2022-10-01T19:44:31.898Z,3.90
2022-10-01T19:47:20.893Z,4.40
2022-10-01T19:49:51.779Z,4.90
2022-10-01T19:52:22.769Z,4.70
2022-10-01T19:54:59.105Z,5.00
2022-10-01T19:57:28.973Z,5.40
2022-10-01T20:00:04.788Z,5.10
2022-10-01T20:02:34.267Z,13.50
2022-10-01T20:05:10.147Z,15.70
2022-10-01T20:07:54.824Z,10.00
2022-10-01T20:10:25.444Z,9.00
2022-10-01T20:13:14.791Z,7.00
2022-10-01T20:16:12.646Z,6.40
2022-10-01T20:18:54.582Z,6.50
2022-10-01T20:21:37.559Z,6.40
2022-10-01T20:24:14.354Z,5.40
2022-10-01T20:26:54.615Z,5.90
2022-10-01T20:29:38.211Z,5.90
2022-10-01T20:32:20.120Z,5.10
2022-10-01T20:34:50.836Z,5.10
2022-10-01T20:37:51.822Z,4.80
2022-10-01T20:40:25.300Z,4.50
2022-10-01T20:43:04.672Z,5.40
2022-10-01T20:45:35.574Z,4.60
2022-10-01T20:48:27.337Z,4.80
2022-10-01T20:51:15.379Z,5.10
2022-10-01T20:54:11.273Z,4.90
2022-10-01T20:56:47.102Z,5.00
2022-10-01T20:59:23.768Z,8.20
2022-10-01T21:02:13.563Z,4.60
2022-10-01T21:04:50.936Z,3.60
2022-10-01T21:07:50.332Z,3.10
2022-10-01T21:10:27.095Z,2.60
2022-10-01T21:13:05.535Z,2.70
2022-10-01T21:15:51.177Z,2.40
2022-10-01T21:18:30.773Z,2.90
2022-10-01T21:21:28.957Z,3.90
2022-10-01T21:24:41.866Z,4.00
2022-10-01T21:27:18.724Z,3.90
2022-10-01T21:30:16.808Z,4.10
2022-10-01T21:33:14.894Z,4.20
2022-10-01T21:35:56.943Z,4.30
2022-10-01T21:38:35.173Z,4.10
2022-10-01T21:41:28.787Z,4.40
2022-10-01T21:44:14.773Z,5.10
2022-10-01T21:46:53.368Z,5.70
2022-10-01T21:49:52.172Z,6.40
2022-10-01T21:52:25.971Z,6.00
2022-10-01T21:57:53.493Z,5.70
2022-10-01T22:00:26.578Z,6.00
2022-10-01T22:03:20.020Z,6.00
2022-10-01T22:06:07.207Z,5.70
2022-10-01T22:08:49.791Z,5.20
2022-10-01T22:11:21.880Z,5.90
2022-10-01T22:14:12.068Z,6.40
2022-10-01T22:16:48.560Z,5.70
2022-10-01T22:19:21.739Z,6.00
2022-10-01T22:21:56.194Z,6.70
2022-10-01T22:24:31.075Z,6.50
2022-10-01T22:27:07.081Z,7.60
2022-10-01T22:29:42.705Z,7.60
2022-10-01T22:32:13.853Z,6.90
2022-10-01T22:34:48.180Z,6.60
2022-10-01T22:37:26.919Z,6.90
2022-10-01T22:40:03.536Z,7.40
2022-10-01T22:42:38.772Z,6.60
2022-10-01T22:45:13.736Z,6.50
2022-10-01T22:47:56.388Z,5.90
2022-10-01T22:50:26.924Z,6.20
2022-10-01T22:53:28.424Z,5.90
2022-10-01T22:55:57.628Z,6.00
2022-10-01T22:59:00.718Z,6.70
2022-10-01T23:01:55.995Z,7.30
2022-10-01T23:04:23.915Z,6.80
2022-10-01T23:07:34.099Z,7.20
2022-10-01T23:10:10.657Z,7.10
2022-10-01T23:12:41.544Z,7.20
2022-10-01T23:15:12.077Z,7.20
2022-10-01T23:17:57.621Z,7.10
2022-10-01T23:20:33.397Z,6.40
2022-10-01T23:23:17.565Z,6.30
2022-10-01T23:26:10.132Z,6.40
2022-10-01T23:28:59.195Z,6.10
2022-10-01T23:31:54.314Z,5.50
2022-10-01T23:34:37.716Z,4.90
2022-10-01T23:37:21.714Z,4.60
2022-10-01T23:39:52.795Z,6.10
2022-10-01T23:42:42.017Z,4.40
2022-10-01T23:45:39.540Z,3.50
2022-10-01T23:48:21.282Z,3.50
2022-10-01T23:51:13.360Z,3.80
2022-10-01T23:53:50.917Z,4.30
2022-10-01T23:56:46.875Z,4.60
2022-10-01T23:59:33.490Z,4.60
